Plato — 8PRX — position and weather

sailwx.info

Track history (hours):
 
Tides and Currents Weather Stations Pressure Air Temp Water Temp Dewpoint Dewpoint Depression Visibility Wind Speed Wind Dir Waves Ship Positions

Plato

Last reported at 2015-Feb-28 02:27 UTC. Time now 2015-Mar-02 12:50 UTC.
Position N 38°52' W 009°51'.

Length 88 m; draft 5.1 m.

Type: Ship. MMSI: 314189000.

Date/timePositionNaut miles runAvg speedWind from/ knotsBaromVisibWave heightAir tempDewpointWater temp
2015-Feb-28 02:27N 38°52' W 009°51'7 7.3
2015-Feb-28 01:33N 38°46' W 009°51'7 6.9
2015-Feb-28 00:32N 38°39' W 009°50'7 6.7
2015-Feb-27 23:33N 38°35' W 009°43'6 6.3
2015-Feb-27 22:33N 38°32' W 009°36'6 6.3
2015-Feb-27 21:33N 38°29' W 009°29'7 6.7
2015-Feb-27 20:33N 38°26' W 009°21'7 7.1
2015-Feb-27 19:33N 38°23' W 009°12'8 8.2
2015-Feb-27 18:33N 38°25' W 009°02'9 9.0
2015-Feb-27 17:33N 38°31' W 008°54'3 2.5
2015-Feb-27 16:33N 38°30' W 008°51'0 0.0
2015-Feb-27 15:32N 38°30' W 008°51'0 0.0
2015-Feb-27 13:33N 38°30' W 008°51'0 0.0
2015-Feb-27 12:19N 38°30' W 008°51'0 0.0
2015-Feb-27 11:33N 38°30' W 008°51'0 0.0
2015-Feb-27 10:33N 38°30' W 008°51'0 0.0
2015-Feb-27 09:33N 38°30' W 008°51'0 0.0
2015-Feb-27 08:33N 38°30' W 008°51'0 0.0
2015-Feb-27 07:33N 38°30' W 008°51'0 0.0
2015-Feb-27 06:33N 38°30' W 008°51'0 0.0
2015-Feb-27 05:33N 38°30' W 008°51'0 0.0
2015-Feb-27 04:33N 38°30' W 008°51'0 0.0
2015-Feb-27 03:33N 38°30' W 008°51'0 0.0
2015-Feb-27 02:33N 38°30' W 008°51'0 0.0
2015-Feb-27 01:32N 38°30' W 008°51'0 0.0
2015-Feb-27 00:32N 38°30' W 008°51'4 4.2
2015-Feb-26 23:31N 38°29' W 008°56'8 7.7
2015-Feb-26 22:30N 38°24' W 009°04'9 9.3
2015-Feb-26 21:33N 38°24' W 009°15'10 9.8
2015-Feb-26 20:33N 38°34' W 009°19'8 7.8
2015-Feb-26 19:33N 38°41' W 009°16'9 8.6
2015-Feb-26 18:32N 38°40' W 009°05'0 0.4
2015-Feb-26 17:33N 38°40' W 009°04'0 0.0
2015-Feb-26 16:32N 38°40' W 009°04'0 0.0
2015-Feb-26 15:28N 38°40' W 009°04'0 0.0
2015-Feb-26 14:32N 38°40' W 009°04'0 0.0
2015-Feb-26 13:31N 38°40' W 009°04'0 0.0
2015-Feb-26 12:33N 38°40' W 009°04'0 0.0
2015-Feb-26 11:33N 38°40' W 009°04'0 0.0
2015-Feb-26 10:29N 38°40' W 009°04'0 0.0
2015-Feb-26 09:29N 38°40' W 009°04'0 0.0
2015-Feb-26 08:28N 38°40' W 009°04'0 0.0
2015-Feb-26 07:33N 38°40' W 009°04'0 0.0
2015-Feb-26 06:33N 38°40' W 009°04'0 0.0
2015-Feb-26 05:32N 38°40' W 009°04'0 0.0
2015-Feb-26 04:26N 38°40' W 009°04'0 0.0
2015-Feb-26 03:31N 38°40' W 009°04'3 3.6
2015-Feb-26 02:33N 38°41' W 009°08'8 8.2
2015-Feb-26 01:33N 38°40' W 009°19'4 4.4
2015-Feb-26 00:33N 38°40' W 009°24'0 0.2
2015-Feb-25 23:31N 38°40' W 009°24'0 0.0
2015-Feb-25 22:28N 38°40' W 009°24'0 0.0
2015-Feb-25 21:33N 38°40' W 009°24'0 0.0
2015-Feb-25 20:27N 38°40' W 009°24'0 0.0
2015-Feb-25 19:20N 38°40' W 009°24'0 0.0
2015-Feb-25 18:32N 38°40' W 009°24'0 0.0
2015-Feb-25 17:28N 38°40' W 009°24'0 0.0
2015-Feb-25 16:33N 38°40' W 009°24'0 0.0
2015-Feb-25 15:27N 38°40' W 009°24'0 0.0
2015-Feb-25 14:20N 38°40' W 009°24'0 0.0
2015-Feb-25 13:25N 38°40' W 009°24'0 0.0
2015-Feb-25 12:28N 38°40' W 009°24'0 0.0
2015-Feb-25 11:33N 38°40' W 009°24'0 0.0
2015-Feb-25 10:27N 38°40' W 009°24'0 0.0
2015-Feb-25 09:29N 38°40' W 009°24'0 0.0
2015-Feb-25 08:33N 38°40' W 009°24'4 3.6
2015-Feb-25 07:33N 38°39' W 009°28'10 9.6
2015-Feb-25 06:33N 38°36' W 009°40'10 9.7
2015-Feb-25 05:32N 38°36' W 009°53'  
Track history (hours):
 
Tides and Currents Weather Stations Pressure Air Temp Water Temp Dewpoint Dewpoint Depression Visibility Wind Speed Wind Dir Waves Ship Positions

Plato

Last reported at 2015-Feb-28 02:27 UTC. Time now 2015-Mar-02 12:50 UTC.
Position N 38°52' W 009°51'.

Length 88 m; draft 5.1 m.

Type: Ship. MMSI: 314189000.

Date/timePositionNaut miles runAvg speedWind from/ knotsBaromVisibWave heightAir tempDewpointWater temp
2015-Feb-28 02:27N 38°52' W 009°51'7 7.3
2015-Feb-28 01:33N 38°46' W 009°51'7 6.9
2015-Feb-28 00:32N 38°39' W 009°50'7 6.7
2015-Feb-27 23:33N 38°35' W 009°43'6 6.3
2015-Feb-27 22:33N 38°32' W 009°36'6 6.3
2015-Feb-27 21:33N 38°29' W 009°29'7 6.7
2015-Feb-27 20:33N 38°26' W 009°21'7 7.1
2015-Feb-27 19:33N 38°23' W 009°12'8 8.2
2015-Feb-27 18:33N 38°25' W 009°02'9 9.0
2015-Feb-27 17:33N 38°31' W 008°54'3 2.5
2015-Feb-27 16:33N 38°30' W 008°51'0 0.0
2015-Feb-27 15:32N 38°30' W 008°51'0 0.0
2015-Feb-27 13:33N 38°30' W 008°51'0 0.0
2015-Feb-27 12:19N 38°30' W 008°51'0 0.0
2015-Feb-27 11:33N 38°30' W 008°51'0 0.0
2015-Feb-27 10:33N 38°30' W 008°51'0 0.0
2015-Feb-27 09:33N 38°30' W 008°51'0 0.0
2015-Feb-27 08:33N 38°30' W 008°51'0 0.0
2015-Feb-27 07:33N 38°30' W 008°51'0 0.0
2015-Feb-27 06:33N 38°30' W 008°51'0 0.0
2015-Feb-27 05:33N 38°30' W 008°51'0 0.0
2015-Feb-27 04:33N 38°30' W 008°51'0 0.0
2015-Feb-27 03:33N 38°30' W 008°51'0 0.0
2015-Feb-27 02:33N 38°30' W 008°51'0 0.0
2015-Feb-27 01:32N 38°30' W 008°51'0 0.0
2015-Feb-27 00:32N 38°30' W 008°51'4 4.2
2015-Feb-26 23:31N 38°29' W 008°56'8 7.7
2015-Feb-26 22:30N 38°24' W 009°04'9 9.3
2015-Feb-26 21:33N 38°24' W 009°15'10 9.8
2015-Feb-26 20:33N 38°34' W 009°19'8 7.8
2015-Feb-26 19:33N 38°41' W 009°16'9 8.6
2015-Feb-26 18:32N 38°40' W 009°05'0 0.4
2015-Feb-26 17:33N 38°40' W 009°04'0 0.0
2015-Feb-26 16:32N 38°40' W 009°04'0 0.0
2015-Feb-26 15:28N 38°40' W 009°04'0 0.0
2015-Feb-26 14:32N 38°40' W 009°04'0 0.0
2015-Feb-26 13:31N 38°40' W 009°04'0 0.0
2015-Feb-26 12:33N 38°40' W 009°04'0 0.0
2015-Feb-26 11:33N 38°40' W 009°04'0 0.0
2015-Feb-26 10:29N 38°40' W 009°04'0 0.0
2015-Feb-26 09:29N 38°40' W 009°04'0 0.0
2015-Feb-26 08:28N 38°40' W 009°04'0 0.0
2015-Feb-26 07:33N 38°40' W 009°04'0 0.0
2015-Feb-26 06:33N 38°40' W 009°04'0 0.0
2015-Feb-26 05:32N 38°40' W 009°04'0 0.0
2015-Feb-26 04:26N 38°40' W 009°04'0 0.0
2015-Feb-26 03:31N 38°40' W 009°04'3 3.6
2015-Feb-26 02:33N 38°41' W 009°08'8 8.2
2015-Feb-26 01:33N 38°40' W 009°19'4 4.4
2015-Feb-26 00:33N 38°40' W 009°24'0 0.2
2015-Feb-25 23:31N 38°40' W 009°24'0 0.0
2015-Feb-25 22:28N 38°40' W 009°24'0 0.0
2015-Feb-25 21:33N 38°40' W 009°24'0 0.0
2015-Feb-25 20:27N 38°40' W 009°24'0 0.0
2015-Feb-25 19:20N 38°40' W 009°24'0 0.0
2015-Feb-25 18:32N 38°40' W 009°24'0 0.0
2015-Feb-25 17:28N 38°40' W 009°24'0 0.0
2015-Feb-25 16:33N 38°40' W 009°24'0 0.0
2015-Feb-25 15:27N 38°40' W 009°24'0 0.0
2015-Feb-25 14:20N 38°40' W 009°24'0 0.0
2015-Feb-25 13:25N 38°40' W 009°24'0 0.0
2015-Feb-25 12:28N 38°40' W 009°24'0 0.0
2015-Feb-25 11:33N 38°40' W 009°24'0 0.0
2015-Feb-25 10:27N 38°40' W 009°24'0 0.0
2015-Feb-25 09:29N 38°40' W 009°24'0 0.0
2015-Feb-25 08:33N 38°40' W 009°24'4 3.6
2015-Feb-25 07:33N 38°39' W 009°28'10 9.6
2015-Feb-25 06:33N 38°36' W 009°40'10 9.7
2015-Feb-25 05:32N 38°36' W 009°53'  

Dump ship's entire track history